sensor_id;sensor_type;location;lat;lon;timestamp;pressure;altitude;pressure_sealevel;temperature;humidity
60375;BME280;46218;48.794;9.172;2022-07-06T04:16:20;98187.02;;;26.80;39.65
60375;BME280;46218;48.794;9.172;2022-07-06T04:18:51;98189.22;;;27.24;39.02
60375;BME280;46218;48.794;9.172;2022-07-06T04:21:22;98194.08;;;27.60;38.63
60375;BME280;46218;48.794;9.172;2022-07-06T04:23:52;98198.00;;;27.92;38.57
60375;BME280;46218;48.794;9.172;2022-07-06T04:26:23;98196.46;;;28.10;37.66
60375;BME280;46218;48.794;9.172;2022-07-06T04:28:53;98193.01;;;28.43;37.75
60375;BME280;46218;48.794;9.172;2022-07-06T04:31:24;98194.21;;;28.93;37.24
60375;BME280;46218;48.794;9.172;2022-07-06T04:33:54;98196.18;;;29.34;36.57
60375;BME280;46218;48.794;9.172;2022-07-06T04:36:25;98197.18;;;29.60;35.90
60375;BME280;46218;48.794;9.172;2022-07-06T04:38:56;98197.70;;;29.72;35.70
60375;BME280;46218;48.794;9.172;2022-07-06T04:41:26;98200.20;;;30.05;35.44
60375;BME280;46218;48.794;9.172;2022-07-06T04:43:56;98207.49;;;30.44;35.23
60375;BME280;46218;48.794;9.172;2022-07-06T04:46:27;98206.13;;;30.51;34.31
60375;BME280;46218;48.794;9.172;2022-07-06T04:48:58;98206.10;;;30.85;34.36
60375;BME280;46218;48.794;9.172;2022-07-06T04:51:28;98209.18;;;31.26;33.85
60375;BME280;46218;48.794;9.172;2022-07-06T04:53:59;98212.20;;;31.63;33.36
60375;BME280;46218;48.794;9.172;2022-07-06T04:56:29;98216.02;;;31.83;33.70
60375;BME280;46218;48.794;9.172;2022-07-06T04:59:00;98215.44;;;32.11;33.10
60375;BME280;46218;48.794;9.172;2022-07-06T05:01:31;98212.73;;;32.25;32.11
60375;BME280;46218;48.794;9.172;2022-07-06T05:04:01;98214.13;;;32.63;32.04
60375;BME280;46218;48.794;9.172;2022-07-06T05:06:32;98214.33;;;32.91;31.33
60375;BME280;46218;48.794;9.172;2022-07-06T05:09:02;98216.72;;;33.23;31.64
60375;BME280;46218;48.794;9.172;2022-07-06T05:11:32;98222.94;;;33.62;31.47
60375;BME280;46218;48.794;9.172;2022-07-06T05:14:03;98222.53;;;33.56;30.18
60375;BME280;46218;48.794;9.172;2022-07-06T05:16:34;98223.19;;;33.93;30.11
60375;BME280;46218;48.794;9.172;2022-07-06T05:19:04;98227.51;;;34.10;30.03
60375;BME280;46218;48.794;9.172;2022-07-06T05:21:35;98230.66;;;33.96;29.68
60375;BME280;46218;48.794;9.172;2022-07-06T05:24:06;98231.72;;;34.40;29.13
60375;BME280;46218;48.794;9.172;2022-07-06T05:26:35;98228.83;;;34.39;28.68
60375;BME280;46218;48.794;9.172;2022-07-06T05:29:06;98234.26;;;34.71;28.53
60375;BME280;46218;48.794;9.172;2022-07-06T05:31:37;98231.04;;;33.94;26.78
60375;BME280;46218;48.794;9.172;2022-07-06T05:34:07;98236.03;;;34.32;28.59
60375;BME280;46218;48.794;9.172;2022-07-06T05:36:38;98243.25;;;33.60;27.00
60375;BME280;46218;48.794;9.172;2022-07-06T05:39:08;98243.54;;;33.13;27.56
60375;BME280;46218;48.794;9.172;2022-07-06T05:41:39;98242.62;;;32.80;28.25
60375;BME280;46218;48.794;9.172;2022-07-06T05:44:09;98241.28;;;32.71;29.52
60375;BME280;46218;48.794;9.172;2022-07-06T05:46:40;98239.69;;;33.89;29.72
60375;BME280;46218;48.794;9.172;2022-07-06T05:49:11;98233.56;;;33.97;28.03
60375;BME280;46218;48.794;9.172;2022-07-06T05:51:41;98235.18;;;32.82;27.49
60375;BME280;46218;48.794;9.172;2022-07-06T05:54:12;98233.17;;;32.76;28.02
60375;BME280;46218;48.794;9.172;2022-07-06T05:56:42;98235.69;;;32.31;28.40
60375;BME280;46218;48.794;9.172;2022-07-06T05:59:12;98240.75;;;31.29;28.47
60375;BME280;46218;48.794;9.172;2022-07-06T06:01:43;98241.69;;;31.50;30.73
60375;BME280;46218;48.794;9.172;2022-07-06T06:04:14;98245.85;;;33.76;30.87
60375;BME280;46218;48.794;9.172;2022-07-06T06:06:44;98242.52;;;35.18;29.10
60375;BME280;46218;48.794;9.172;2022-07-06T06:09:15;98240.26;;;36.14;27.45
60375;BME280;46218;48.794;9.172;2022-07-06T06:11:45;98243.36;;;37.00;27.04
60375;BME280;46218;48.794;9.172;2022-07-06T06:14:15;98244.73;;;37.10;25.18
60375;BME280;46218;48.794;9.172;2022-07-06T06:16:46;98245.52;;;37.60;24.58
60375;BME280;46218;48.794;9.172;2022-07-06T06:19:16;98247.99;;;38.13;24.65
60375;BME280;46218;48.794;9.172;2022-07-06T06:21:47;98255.11;;;38.61;23.61
60375;BME280;46218;48.794;9.172;2022-07-06T06:24:17;98252.88;;;38.74;24.40
60375;BME280;46218;48.794;9.172;2022-07-06T06:26:48;98258.13;;;39.06;21.80
60375;BME280;46218;48.794;9.172;2022-07-06T06:29:18;98258.30;;;39.48;22.04
60375;BME280;46218;48.794;9.172;2022-07-06T06:31:49;98261.80;;;39.56;21.45
60375;BME280;46218;48.794;9.172;2022-07-06T06:34:19;98269.10;;;40.00;20.88
60375;BME280;46218;48.794;9.172;2022-07-06T06:36:50;98266.29;;;39.90;20.10
60375;BME280;46218;48.794;9.172;2022-07-06T06:39:20;98270.45;;;38.45;19.63
60375;BME280;46218;48.794;9.172;2022-07-06T06:41:51;98269.97;;;37.75;20.67
60375;BME280;46218;48.794;9.172;2022-07-06T06:44:21;98272.52;;;37.39;21.24
60375;BME280;46218;48.794;9.172;2022-07-06T06:46:52;98278.22;;;38.72;21.44
60375;BME280;46218;48.794;9.172;2022-07-06T06:49:22;98271.97;;;39.84;20.68
60375;BME280;46218;48.794;9.172;2022-07-06T06:51:52;98275.41;;;40.41;20.59
60375;BME280;46218;48.794;9.172;2022-07-06T06:54:23;98271.02;;;40.74;19.69
60375;BME280;46218;48.794;9.172;2022-07-06T06:56:53;98272.33;;;40.88;18.39
60375;BME280;46218;48.794;9.172;2022-07-06T06:59:23;98273.28;;;41.20;18.87
60375;BME280;46218;48.794;9.172;2022-07-06T07:01:53;98271.61;;;41.37;17.34
60375;BME280;46218;48.794;9.172;2022-07-06T07:04:24;98268.75;;;41.36;17.38
60375;BME280;46218;48.794;9.172;2022-07-06T07:06:54;98273.18;;;41.49;16.92
60375;BME280;46218;48.794;9.172;2022-07-06T07:09:24;98274.92;;;41.86;16.51
60375;BME280;46218;48.794;9.172;2022-07-06T07:11:55;98271.39;;;42.01;16.87
60375;BME280;46218;48.794;9.172;2022-07-06T07:14:25;98268.83;;;42.06;15.99
60375;BME280;46218;48.794;9.172;2022-07-06T07:16:55;98267.90;;;42.12;15.82
60375;BME280;46218;48.794;9.172;2022-07-06T07:19:26;98271.00;;;42.02;15.17
60375;BME280;46218;48.794;9.172;2022-07-06T07:21:56;98267.93;;;41.91;15.39
60375;BME280;46218;48.794;9.172;2022-07-06T07:24:26;98270.53;;;42.11;15.69
60375;BME280;46218;48.794;9.172;2022-07-06T07:26:57;98267.99;;;42.24;14.75
60375;BME280;46218;48.794;9.172;2022-07-06T07:29:27;98266.61;;;42.25;14.37
60375;BME280;46218;48.794;9.172;2022-07-06T07:31:58;98263.25;;;42.11;14.08
60375;BME280;46218;48.794;9.172;2022-07-06T07:34:28;98262.91;;;42.25;14.14
60375;BME280;46218;48.794;9.172;2022-07-06T07:36:58;98262.25;;;42.40;14.28
60375;BME280;46218;48.794;9.172;2022-07-06T07:39:29;98263.05;;;42.61;14.36
60375;BME280;46218;48.794;9.172;2022-07-06T07:41:59;98264.26;;;42.67;13.68
60375;BME280;46218;48.794;9.172;2022-07-06T07:44:29;98262.89;;;42.93;13.83
60375;BME280;46218;48.794;9.172;2022-07-06T07:47:00;98262.95;;;42.90;13.56
60375;BME280;46218;48.794;9.172;2022-07-06T07:49:30;98261.50;;;42.98;12.68
60375;BME280;46218;48.794;9.172;2022-07-06T07:52:01;98263.59;;;43.32;11.90
60375;BME280;46218;48.794;9.172;2022-07-06T07:54:31;98265.76;;;43.26;13.13
60375;BME280;46218;48.794;9.172;2022-07-06T07:57:02;98267.91;;;43.29;12.47
60375;BME280;46218;48.794;9.172;2022-07-06T07:59:32;98268.26;;;43.37;12.82
60375;BME280;46218;48.794;9.172;2022-07-06T08:02:02;98266.34;;;43.40;12.21
60375;BME280;46218;48.794;9.172;2022-07-06T08:04:32;98269.65;;;43.35;12.70
60375;BME280;46218;48.794;9.172;2022-07-06T08:07:03;98268.91;;;43.42;12.28
60375;BME280;46218;48.794;9.172;2022-07-06T08:09:33;98268.21;;;43.56;11.52
60375;BME280;46218;48.794;9.172;2022-07-06T08:12:05;98269.06;;;43.23;11.39
60375;BME280;46218;48.794;9.172;2022-07-06T08:14:33;98266.09;;;42.45;11.66
60375;BME280;46218;48.794;9.172;2022-07-06T08:17:04;98270.19;;;42.89;12.33
60375;BME280;46218;48.794;9.172;2022-07-06T08:19:34;98266.29;;;42.90;11.25
60375;BME280;46218;48.794;9.172;2022-07-06T08:22:04;98263.55;;;42.87;11.45
60375;BME280;46218;48.794;9.172;2022-07-06T08:24:35;98266.75;;;42.98;12.27
60375;BME280;46218;48.794;9.172;2022-07-06T08:27:05;98266.49;;;43.20;11.98
60375;BME280;46218;48.794;9.172;2022-07-06T08:29:36;98268.10;;;42.98;10.75
60375;BME280;46218;48.794;9.172;2022-07-06T08:32:06;98272.00;;;41.30;13.83
60375;BME280;46218;48.794;9.172;2022-07-06T08:34:36;98264.40;;;42.32;12.69
60375;BME280;46218;48.794;9.172;2022-07-06T08:37:07;98265.52;;;42.85;12.53
60375;BME280;46218;48.794;9.172;2022-07-06T08:39:37;98263.83;;;43.16;12.12
60375;BME280;46218;48.794;9.172;2022-07-06T08:42:08;98266.60;;;43.26;11.19
60375;BME280;46218;48.794;9.172;2022-07-06T08:44:38;98267.95;;;43.48;11.62
60375;BME280;46218;48.794;9.172;2022-07-06T08:47:09;98269.44;;;43.77;10.59
60375;BME280;46218;48.794;9.172;2022-07-06T08:49:39;98264.95;;;43.88;11.09
60375;BME280;46218;48.794;9.172;2022-07-06T08:52:10;98269.58;;;44.06;10.21
60375;BME280;46218;48.794;9.172;2022-07-06T08:54:40;98270.14;;;43.97;10.53
60375;BME280;46218;48.794;9.172;2022-07-06T08:57:10;98268.71;;;43.64;10.43
60375;BME280;46218;48.794;9.172;2022-07-06T08:59:40;98269.71;;;43.87;10.30
60375;BME280;46218;48.794;9.172;2022-07-06T09:02:11;98270.43;;;44.09;10.39
60375;BME280;46218;48.794;9.172;2022-07-06T09:04:42;98270.76;;;44.09;10.13
60375;BME280;46218;48.794;9.172;2022-07-06T09:07:11;98275.06;;;44.23;9.53
60375;BME280;46218;48.794;9.172;2022-07-06T09:09:42;98276.16;;;43.99;9.73
60375;BME280;46218;48.794;9.172;2022-07-06T09:12:12;98283.75;;;44.24;9.88
60375;BME280;46218;48.794;9.172;2022-07-06T09:14:42;98279.87;;;43.54;9.69
60375;BME280;46218;48.794;9.172;2022-07-06T09:17:13;98277.28;;;43.58;10.36
60375;BME280;46218;48.794;9.172;2022-07-06T09:19:45;98280.62;;;44.17;10.12
60375;BME280;46218;48.794;9.172;2022-07-06T09:24:44;98294.21;;;44.30;9.46
60375;BME280;46218;48.794;9.172;2022-07-06T09:27:16;98292.56;;;44.11;8.64
60375;BME280;46218;48.794;9.172;2022-07-06T09:29:45;98292.45;;;44.05;8.93
60375;BME280;46218;48.794;9.172;2022-07-06T09:32:20;98296.50;;;44.29;8.92
60375;BME280;46218;48.794;9.172;2022-07-06T09:34:46;98291.34;;;44.18;9.14
60375;BME280;46218;48.794;9.172;2022-07-06T09:37:15;98295.97;;;44.06;8.91
60375;BME280;46218;48.794;9.172;2022-07-06T09:39:46;98297.66;;;44.02;9.56
60375;BME280;46218;48.794;9.172;2022-07-06T09:42:16;98294.50;;;42.80;9.36
60375;BME280;46218;48.794;9.172;2022-07-06T09:44:48;98293.24;;;42.52;9.86
60375;BME280;46218;48.794;9.172;2022-07-06T09:47:18;98296.19;;;42.39;11.24
60375;BME280;46218;48.794;9.172;2022-07-06T09:49:47;98296.99;;;42.23;11.10
60375;BME280;46218;48.794;9.172;2022-07-06T09:52:17;98300.35;;;41.61;11.32
60375;BME280;46218;48.794;9.172;2022-07-06T09:54:48;98293.73;;;39.59;13.98
60375;BME280;46218;48.794;9.172;2022-07-06T09:57:21;98296.11;;;41.04;13.63
60375;BME280;46218;48.794;9.172;2022-07-06T09:59:51;98299.84;;;42.36;12.29
60375;BME280;46218;48.794;9.172;2022-07-06T10:02:20;98301.50;;;43.13;11.19
60375;BME280;46218;48.794;9.172;2022-07-06T10:04:50;98308.87;;;43.72;9.79
60375;BME280;46218;48.794;9.172;2022-07-06T10:07:21;98309.80;;;43.57;10.29
60375;BME280;46218;48.794;9.172;2022-07-06T10:09:51;98307.79;;;43.82;9.47
60375;BME280;46218;48.794;9.172;2022-07-06T10:12:20;98305.81;;;42.97;10.21
60375;BME280;46218;48.794;9.172;2022-07-06T10:14:51;98310.59;;;43.46;9.32
60375;BME280;46218;48.794;9.172;2022-07-06T10:17:25;98312.08;;;43.27;10.04
60375;BME280;46218;48.794;9.172;2022-07-06T10:19:52;98304.57;;;42.86;9.81
60375;BME280;46218;48.794;9.172;2022-07-06T10:22:22;98306.01;;;42.41;10.37
60375;BME280;46218;48.794;9.172;2022-07-06T10:24:52;98307.75;;;42.51;11.15
60375;BME280;46218;48.794;9.172;2022-07-06T10:27:23;98308.92;;;42.69;11.07
60375;BME280;46218;48.794;9.172;2022-07-06T10:29:52;98308.81;;;42.55;11.02
60375;BME280;46218;48.794;9.172;2022-07-06T10:32:23;98308.92;;;42.69;10.74
60375;BME280;46218;48.794;9.172;2022-07-06T10:34:53;98304.56;;;42.90;11.23
60375;BME280;46218;48.794;9.172;2022-07-06T10:37:26;98312.77;;;43.29;10.95
60375;BME280;46218;48.794;9.172;2022-07-06T10:39:54;98311.63;;;43.33;10.40
60375;BME280;46218;48.794;9.172;2022-07-06T10:44:54;98312.99;;;43.48;10.40
60375;BME280;46218;48.794;9.172;2022-07-06T10:47:27;98314.59;;;43.81;9.38
60375;BME280;46218;48.794;9.172;2022-07-06T10:49:59;98307.92;;;43.68;9.13
60375;BME280;46218;48.794;9.172;2022-07-06T10:54:56;98310.05;;;42.88;10.31
60375;BME280;46218;48.794;9.172;2022-07-06T10:57:26;98302.73;;;42.72;10.27
60375;BME280;46218;48.794;9.172;2022-07-06T11:00:01;98297.21;;;42.58;10.27
60375;BME280;46218;48.794;9.172;2022-07-06T11:02:26;98305.75;;;42.68;10.97
60375;BME280;46218;48.794;9.172;2022-07-06T11:04:56;98300.63;;;42.59;10.41
60375;BME280;46218;48.794;9.172;2022-07-06T11:07:27;98303.32;;;41.94;10.55
60375;BME280;46218;48.794;9.172;2022-07-06T11:09:59;98292.86;;;41.48;11.39
60375;BME280;46218;48.794;9.172;2022-07-06T11:12:27;98297.99;;;41.48;12.03
60375;BME280;46218;48.794;9.172;2022-07-06T11:14:58;98302.25;;;40.54;11.65
60375;BME280;46218;48.794;9.172;2022-07-06T11:17:28;98297.43;;;39.52;12.65
60375;BME280;46218;48.794;9.172;2022-07-06T11:20:08;98292.79;;;39.26;14.37
60375;BME280;46218;48.794;9.172;2022-07-06T11:22:30;98286.92;;;39.70;14.17
60375;BME280;46218;48.794;9.172;2022-07-06T11:24:59;98282.39;;;40.00;13.99
60375;BME280;46218;48.794;9.172;2022-07-06T11:27:30;98274.79;;;40.22;13.83
60375;BME280;46218;48.794;9.172;2022-07-06T11:30:01;98278.51;;;40.14;13.58
60375;BME280;46218;48.794;9.172;2022-07-06T11:32:31;98281.28;;;39.86;14.67
60375;BME280;46218;48.794;9.172;2022-07-06T11:35:01;98279.43;;;39.59;14.77
60375;BME280;46218;48.794;9.172;2022-07-06T11:37:32;98278.92;;;37.64;16.71
60375;BME280;46218;48.794;9.172;2022-07-06T11:40:06;98278.38;;;36.60;17.99
60375;BME280;46218;48.794;9.172;2022-07-06T11:42:32;98275.15;;;36.75;18.00
60375;BME280;46218;48.794;9.172;2022-07-06T11:45:03;98270.09;;;36.47;18.11
60375;BME280;46218;48.794;9.172;2022-07-06T11:47:33;98270.90;;;36.75;18.54
60375;BME280;46218;48.794;9.172;2022-07-06T11:50:05;98269.98;;;37.08;17.82
60375;BME280;46218;48.794;9.172;2022-07-06T11:52:34;98267.70;;;36.60;18.48
60375;BME280;46218;48.794;9.172;2022-07-06T11:55:05;98259.60;;;36.46;19.08
60375;BME280;46218;48.794;9.172;2022-07-06T11:57:35;98268.42;;;36.33;19.45
60375;BME280;46218;48.794;9.172;2022-07-06T12:00:06;98264.44;;;36.51;19.17
60375;BME280;46218;48.794;9.172;2022-07-06T12:02:36;98266.94;;;35.80;19.23
60375;BME280;46218;48.794;9.172;2022-07-06T12:05:07;98261.41;;;35.48;19.44
60375;BME280;46218;48.794;9.172;2022-07-06T12:07:36;98257.89;;;35.30;20.36
60375;BME280;46218;48.794;9.172;2022-07-06T12:10:08;98262.73;;;35.32;20.24
60375;BME280;46218;48.794;9.172;2022-07-06T12:12:37;98258.04;;;35.02;20.40
60375;BME280;46218;48.794;9.172;2022-07-06T12:15:08;98258.43;;;35.19;20.83
60375;BME280;46218;48.794;9.172;2022-07-06T12:17:38;98250.83;;;35.19;21.26
60375;BME280;46218;48.794;9.172;2022-07-06T12:20:19;98256.02;;;34.90;21.29
60375;BME280;46218;48.794;9.172;2022-07-06T12:22:39;98254.31;;;35.15;20.93
60375;BME280;46218;48.794;9.172;2022-07-06T12:25:10;98248.22;;;35.33;21.20
60375;BME280;46218;48.794;9.172;2022-07-06T12:27:41;98249.93;;;35.27;21.11
60375;BME280;46218;48.794;9.172;2022-07-06T12:30:12;98251.56;;;35.21;20.83
60375;BME280;46218;48.794;9.172;2022-07-06T12:32:41;98252.23;;;35.32;21.70
60375;BME280;46218;48.794;9.172;2022-07-06T12:35:12;98246.54;;;35.87;21.02
60375;BME280;46218;48.794;9.172;2022-07-06T12:40:13;98248.90;;;35.73;20.92
60375;BME280;46218;48.794;9.172;2022-07-06T12:42:46;98253.12;;;35.70;20.93
60375;BME280;46218;48.794;9.172;2022-07-06T12:45:13;98244.71;;;36.06;20.94
60375;BME280;46218;48.794;9.172;2022-07-06T12:50:14;98253.32;;;35.61;21.07
60375;BME280;46218;48.794;9.172;2022-07-06T12:52:44;98250.27;;;34.89;21.54
60375;BME280;46218;48.794;9.172;2022-07-06T12:55:15;98254.68;;;35.15;21.24
60375;BME280;46218;48.794;9.172;2022-07-06T12:57:47;98242.37;;;34.85;21.42
60375;BME280;46218;48.794;9.172;2022-07-06T13:00:17;98244.73;;;34.77;21.24
60375;BME280;46218;48.794;9.172;2022-07-06T13:02:47;98239.76;;;34.33;21.89
60375;BME280;46218;48.794;9.172;2022-07-06T13:05:17;98238.63;;;34.28;21.74
60375;BME280;46218;48.794;9.172;2022-07-06T13:07:48;98242.10;;;34.17;22.54
60375;BME280;46218;48.794;9.172;2022-07-06T13:10:18;98245.01;;;34.46;22.42
60375;BME280;46218;48.794;9.172;2022-07-06T13:12:48;98246.54;;;34.90;22.27
60375;BME280;46218;48.794;9.172;2022-07-06T13:15:19;98240.48;;;35.14;21.26
60375;BME280;46218;48.794;9.172;2022-07-06T13:17:49;98244.75;;;34.91;21.25
60375;BME280;46218;48.794;9.172;2022-07-06T13:20:20;98242.98;;;34.96;21.59
60375;BME280;46218;48.794;9.172;2022-07-06T13:22:50;98241.92;;;34.93;21.48
60375;BME280;46218;48.794;9.172;2022-07-06T13:25:21;98237.63;;;34.75;21.63
60375;BME280;46218;48.794;9.172;2022-07-06T13:27:51;98238.49;;;34.40;22.13
60375;BME280;46218;48.794;9.172;2022-07-06T13:30:22;98238.11;;;34.32;22.17
60375;BME280;46218;48.794;9.172;2022-07-06T13:32:52;98233.87;;;34.21;22.28
60375;BME280;46218;48.794;9.172;2022-07-06T13:35:22;98236.85;;;33.48;23.14
60375;BME280;46218;48.794;9.172;2022-07-06T13:37:52;98239.07;;;33.78;22.45
60375;BME280;46218;48.794;9.172;2022-07-06T13:40:23;98230.35;;;34.00;23.03
60375;BME280;46218;48.794;9.172;2022-07-06T13:42:53;98230.30;;;32.59;24.08
60375;BME280;46218;48.794;9.172;2022-07-06T13:45:24;98225.10;;;32.82;24.24
60375;BME280;46218;48.794;9.172;2022-07-06T13:47:54;98219.14;;;32.91;24.35
60375;BME280;46218;48.794;9.172;2022-07-06T13:50:25;98218.14;;;33.40;23.90
60375;BME280;46218;48.794;9.172;2022-07-06T13:52:55;98210.58;;;33.53;23.38
60375;BME280;46218;48.794;9.172;2022-07-06T13:55:26;98212.28;;;33.50;23.56
60375;BME280;46218;48.794;9.172;2022-07-06T13:57:56;98211.83;;;33.49;23.32
60375;BME280;46218;48.794;9.172;2022-07-06T14:00:27;98203.26;;;32.74;24.15
60375;BME280;46218;48.794;9.172;2022-07-06T14:02:57;98205.47;;;32.81;24.06
60375;BME280;46218;48.794;9.172;2022-07-06T14:05:28;98197.42;;;32.58;24.20
60375;BME280;46218;48.794;9.172;2022-07-06T14:07:58;98193.73;;;32.17;24.85
60375;BME280;46218;48.794;9.172;2022-07-06T14:10:29;98197.83;;;32.44;24.72
60375;BME280;46218;48.794;9.172;2022-07-06T14:12:59;98193.74;;;32.41;24.41
60375;BME280;46218;48.794;9.172;2022-07-06T14:15:30;98192.97;;;32.34;24.95
60375;BME280;46218;48.794;9.172;2022-07-06T14:18:01;98197.51;;;32.49;24.39
60375;BME280;46218;48.794;9.172;2022-07-06T14:20:31;98191.73;;;32.43;24.72
60375;BME280;46218;48.794;9.172;2022-07-06T14:23:02;98193.70;;;32.70;24.81
60375;BME280;46218;48.794;9.172;2022-07-06T14:25:32;98185.01;;;32.52;24.49
60375;BME280;46218;48.794;9.172;2022-07-06T14:28:03;98190.47;;;32.71;24.59
60375;BME280;46218;48.794;9.172;2022-07-06T14:30:33;98183.40;;;32.45;24.66
60375;BME280;46218;48.794;9.172;2022-07-06T14:33:04;98189.56;;;32.44;24.36
60375;BME280;46218;48.794;9.172;2022-07-06T14:35:35;98177.87;;;31.94;25.14
60375;BME280;46218;48.794;9.172;2022-07-06T14:38:05;98180.30;;;31.87;25.16
60375;BME280;46218;48.794;9.172;2022-07-06T14:40:35;98177.33;;;31.78;25.25
60375;BME280;46218;48.794;9.172;2022-07-06T14:43:06;98174.58;;;31.85;25.15
60375;BME280;46218;48.794;9.172;2022-07-06T14:45:36;98176.38;;;31.69;25.25
60375;BME280;46218;48.794;9.172;2022-07-06T14:48:06;98172.16;;;31.39;25.98
60375;BME280;46218;48.794;9.172;2022-07-06T14:50:37;98173.08;;;31.23;26.40
60375;BME280;46218;48.794;9.172;2022-07-06T14:53:07;98171.48;;;31.45;25.88
60375;BME280;46218;48.794;9.172;2022-07-06T14:55:38;98168.35;;;31.58;25.39
60375;BME280;46218;48.794;9.172;2022-07-06T14:58:08;98174.22;;;31.54;25.46
60375;BME280;46218;48.794;9.172;2022-07-06T15:00:39;98175.36;;;31.59;25.59
60375;BME280;46218;48.794;9.172;2022-07-06T15:03:09;98170.33;;;31.62;25.72
60375;BME280;46218;48.794;9.172;2022-07-06T15:05:40;98171.46;;;31.05;26.29
60375;BME280;46218;48.794;9.172;2022-07-06T15:08:11;98166.10;;;30.99;26.04
60375;BME280;46218;48.794;9.172;2022-07-06T15:10:41;98164.84;;;31.10;26.28
60375;BME280;46218;48.794;9.172;2022-07-06T15:13:12;98157.64;;;30.97;26.29
60375;BME280;46218;48.794;9.172;2022-07-06T15:15:42;98154.36;;;30.67;26.51
60375;BME280;46218;48.794;9.172;2022-07-06T15:18:12;98151.56;;;30.70;26.49
60375;BME280;46218;48.794;9.172;2022-07-06T15:20:43;98151.10;;;30.40;27.44
60375;BME280;46218;48.794;9.172;2022-07-06T15:23:13;98151.82;;;30.32;27.34
60375;BME280;46218;48.794;9.172;2022-07-06T15:25:44;98153.12;;;30.46;26.94
60375;BME280;46218;48.794;9.172;2022-07-06T15:28:14;98154.78;;;30.34;27.07
60375;BME280;46218;48.794;9.172;2022-07-06T15:30:45;98146.24;;;30.17;26.94
60375;BME280;46218;48.794;9.172;2022-07-06T15:33:15;98149.06;;;30.02;27.43
60375;BME280;46218;48.794;9.172;2022-07-06T15:35:46;98148.76;;;30.12;27.65
60375;BME280;46218;48.794;9.172;2022-07-06T15:38:17;98146.23;;;30.14;27.20
60375;BME280;46218;48.794;9.172;2022-07-06T15:40:47;98146.74;;;29.98;27.43
60375;BME280;46218;48.794;9.172;2022-07-06T15:43:17;98141.46;;;30.05;27.29
60375;BME280;46218;48.794;9.172;2022-07-06T15:45:54;98138.82;;;29.93;27.45
60375;BME280;46218;48.794;9.172;2022-07-06T15:48:18;98134.78;;;30.04;27.46
60375;BME280;46218;48.794;9.172;2022-07-06T15:50:49;98132.46;;;30.49;27.58
60375;BME280;46218;48.794;9.172;2022-07-06T15:53:20;98134.89;;;30.61;27.12
60375;BME280;46218;48.794;9.172;2022-07-06T15:55:51;98129.40;;;30.83;27.13
60375;BME280;46218;48.794;9.172;2022-07-06T15:58:21;98127.11;;;29.99;28.07
60375;BME280;46218;48.794;9.172;2022-07-06T16:00:52;98121.96;;;30.13;27.59
60375;BME280;46218;48.794;9.172;2022-07-06T16:03:22;98124.26;;;30.01;27.46
60375;BME280;46218;48.794;9.172;2022-07-06T16:05:52;98124.32;;;30.41;27.25
60375;BME280;46218;48.794;9.172;2022-07-06T16:08:23;98124.89;;;30.61;27.15
60375;BME280;46218;48.794;9.172;2022-07-06T16:10:54;98127.22;;;30.75;26.65
60375;BME280;46218;48.794;9.172;2022-07-06T16:13:24;98124.39;;;30.81;26.80
60375;BME280;46218;48.794;9.172;2022-07-06T16:15:55;98121.60;;;30.70;26.44
60375;BME280;46218;48.794;9.172;2022-07-06T16:18:25;98119.83;;;30.66;26.38
60375;BME280;46218;48.794;9.172;2022-07-06T16:20:56;98115.80;;;30.77;25.96
60375;BME280;46218;48.794;9.172;2022-07-06T16:23:26;98117.27;;;30.80;26.22
60375;BME280;46218;48.794;9.172;2022-07-06T16:25:57;98112.81;;;30.80;26.12
60375;BME280;46218;48.794;9.172;2022-07-06T16:28:28;98117.84;;;30.90;25.85
60375;BME280;46218;48.794;9.172;2022-07-06T16:30:58;98115.15;;;30.72;25.95
60375;BME280;46218;48.794;9.172;2022-07-06T16:33:28;98115.70;;;30.79;25.93
60375;BME280;46218;48.794;9.172;2022-07-06T16:35:59;98112.54;;;30.85;25.96
60375;BME280;46218;48.794;9.172;2022-07-06T16:38:30;98110.83;;;30.70;25.81
60375;BME280;46218;48.794;9.172;2022-07-06T16:41:01;98110.00;;;30.94;25.71
60375;BME280;46218;48.794;9.172;2022-07-06T16:43:31;98106.55;;;30.74;25.88
60375;BME280;46218;48.794;9.172;2022-07-06T16:46:02;98108.86;;;30.93;25.70
60375;BME280;46218;48.794;9.172;2022-07-06T16:48:32;98102.71;;;30.98;25.46
60375;BME280;46218;48.794;9.172;2022-07-06T16:51:02;98107.29;;;30.56;25.55
60375;BME280;46218;48.794;9.172;2022-07-06T16:53:33;98107.69;;;30.54;25.20
60375;BME280;46218;48.794;9.172;2022-07-06T16:56:03;98105.69;;;30.21;25.35
60375;BME280;46218;48.794;9.172;2022-07-06T16:58:34;98106.21;;;30.26;25.33
60375;BME280;46218;48.794;9.172;2022-07-06T17:01:04;98108.08;;;29.83;25.31
60375;BME280;46218;48.794;9.172;2022-07-06T17:03:35;98108.33;;;29.49;25.73
60375;BME280;46218;48.794;9.172;2022-07-06T17:06:06;98111.85;;;29.36;26.21
60375;BME280;46218;48.794;9.172;2022-07-06T17:08:36;98107.14;;;29.50;26.14
60375;BME280;46218;48.794;9.172;2022-07-06T17:11:06;98108.82;;;29.48;26.08
60375;BME280;46218;48.794;9.172;2022-07-06T17:13:37;98110.01;;;29.54;25.96
60375;BME280;46218;48.794;9.172;2022-07-06T17:16:08;98113.87;;;29.51;25.87
60375;BME280;46218;48.794;9.172;2022-07-06T17:18:38;98115.93;;;29.59;25.65
60375;BME280;46218;48.794;9.172;2022-07-06T17:21:09;98117.07;;;29.50;25.40
60375;BME280;46218;48.794;9.172;2022-07-06T17:23:39;98121.54;;;29.45;25.96
60375;BME280;46218;48.794;9.172;2022-07-06T17:26:10;98118.01;;;29.64;25.74
60375;BME280;46218;48.794;9.172;2022-07-06T17:28:40;98120.38;;;29.27;25.80
60375;BME280;46218;48.794;9.172;2022-07-06T17:31:11;98121.13;;;29.29;26.21
60375;BME280;46218;48.794;9.172;2022-07-06T17:33:41;98128.14;;;29.47;26.10
60375;BME280;46218;48.794;9.172;2022-07-06T17:36:12;98125.83;;;29.55;25.77
60375;BME280;46218;48.794;9.172;2022-07-06T17:38:42;98127.08;;;29.73;25.47
60375;BME280;46218;48.794;9.172;2022-07-06T17:41:13;98130.30;;;29.78;25.41
60375;BME280;46218;48.794;9.172;2022-07-06T17:43:43;98126.40;;;29.71;25.57